createdAt,value
2022-12-09T00:05:28.107Z,100.00
2022-12-09T00:11:30.104Z,100.00
2022-12-09T00:17:32.280Z,100.00
2022-12-09T00:23:34.474Z,100.00
2022-12-09T00:29:36.439Z,100.00
2022-12-09T00:35:38.359Z,100.00
2022-12-09T00:41:40.527Z,100.00
2022-12-09T00:47:42.796Z,100.00
2022-12-09T00:53:44.958Z,100.00
2022-12-09T00:59:47.149Z,100.00
2022-12-09T01:05:49.367Z,100.00
2022-12-09T01:11:51.611Z,100.00
2022-12-09T01:17:53.738Z,100.00
2022-12-09T01:23:55.762Z,100.00
2022-12-09T01:29:57.708Z,100.00
2022-12-09T01:35:59.628Z,100.00
2022-12-09T01:42:03.403Z,100.00
2022-12-09T01:48:12.255Z,100.00
2022-12-09T01:54:14.843Z,100.00
2022-12-09T02:00:19.754Z,100.00
2022-12-09T02:06:21.716Z,100.00
2022-12-09T02:13:11.083Z,100.00
2022-12-09T02:19:42.472Z,100.00
2022-12-09T02:26:09.145Z,100.00
2022-12-09T02:32:40.649Z,100.00
2022-12-09T02:38:44.330Z,100.00
2022-12-09T02:44:50.078Z,100.00
2022-12-09T02:50:54.115Z,100.00
2022-12-09T02:57:16.154Z,100.00
2022-12-09T03:03:19.210Z,100.00
2022-12-09T03:09:34.869Z,100.00
2022-12-09T03:15:39.989Z,100.00
2022-12-09T03:21:48.941Z,100.00
2022-12-09T03:28:19.931Z,100.00
2022-12-09T03:34:30.610Z,100.00
2022-12-09T03:40:35.927Z,100.00
2022-12-09T03:46:38.634Z,100.00
2022-12-09T03:53:16.124Z,100.00
2022-12-09T03:59:19.218Z,100.00
2022-12-09T04:05:21.592Z,100.00
2022-12-09T04:11:23.624Z,100.00
2022-12-09T04:17:25.673Z,100.00
2022-12-09T04:23:27.936Z,100.00
2022-12-09T04:29:30.192Z,100.00
2022-12-09T04:35:32.538Z,100.00
2022-12-09T04:41:34.684Z,100.00
2022-12-09T04:47:36.781Z,100.00
2022-12-09T04:53:38.977Z,100.00
2022-12-09T04:59:40.909Z,100.00
2022-12-09T05:05:43.394Z,100.00
2022-12-09T05:11:45.398Z,100.00
2022-12-09T05:17:59.922Z,100.00
2022-12-09T05:24:03.819Z,100.00
2022-12-09T05:30:07.618Z,100.00
2022-12-09T05:36:15.702Z,100.00
2022-12-09T05:42:18.345Z,100.00
2022-12-09T05:48:20.398Z,100.00
2022-12-09T05:54:22.488Z,100.00
2022-12-09T06:00:25.137Z,100.00
2022-12-09T06:06:30.092Z,100.00
2022-12-09T06:12:32.752Z,100.00
2022-12-09T06:18:35.305Z,100.00
2022-12-09T06:24:37.702Z,100.00
2022-12-09T06:30:40.105Z,100.00
2022-12-09T06:36:42.359Z,100.00
2022-12-09T06:42:44.528Z,100.00
2022-12-09T06:48:47.220Z,100.00
2022-12-09T06:54:49.376Z,100.00
2022-12-09T07:00:51.818Z,100.00
2022-12-09T07:06:54.302Z,100.00
2022-12-09T07:12:56.298Z,100.00
2022-12-09T07:18:58.332Z,100.00
2022-12-09T07:25:00.630Z,100.00
2022-12-09T07:31:03.966Z,100.00
2022-12-09T07:37:06.031Z,100.00
2022-12-09T07:43:08.274Z,100.00
2022-12-09T07:49:11.940Z,100.00
2022-12-09T07:55:14.593Z,100.00
2022-12-09T08:01:21.042Z,100.00
2022-12-09T08:07:23.710Z,100.00
2022-12-09T08:13:26.055Z,100.00
2022-12-09T08:19:28.125Z,100.00
2022-12-09T08:25:33.874Z,100.00
2022-12-09T08:31:40.994Z,100.00
2022-12-09T08:37:44.609Z,100.00
2022-12-09T08:43:47.637Z,100.00
2022-12-09T08:50:02.943Z,100.00
2022-12-09T08:56:14.892Z,100.00
2022-12-09T09:02:17.545Z,100.00
2022-12-09T09:08:20.462Z,100.00
2022-12-09T09:14:29.260Z,99.86
2022-12-09T09:20:31.543Z,98.90
2022-12-09T09:26:33.745Z,98.66
2022-12-09T09:32:36.316Z,98.75
2022-12-09T09:38:39.325Z,97.22
2022-12-09T09:44:47.901Z,96.05
2022-12-09T09:51:06.517Z,95.43
2022-12-09T09:58:23.870Z,95.15
2022-12-09T10:05:22.937Z,95.54
2022-12-09T10:12:19.442Z,95.74
2022-12-09T10:18:34.420Z,94.93
2022-12-09T10:24:40.465Z,92.97
2022-12-09T10:30:44.973Z,91.53
2022-12-09T10:36:48.830Z,89.60
2022-12-09T10:43:17.581Z,88.46
2022-12-09T10:49:25.455Z,88.75
2022-12-09T10:55:52.120Z,87.46
2022-12-09T11:01:57.666Z,85.45
2022-12-09T11:08:01.270Z,84.01
2022-12-09T11:14:04.233Z,83.30
2022-12-09T11:20:06.549Z,82.99
2022-12-09T11:26:32.390Z,81.14
2022-12-09T11:32:52.990Z,78.87
2022-12-09T11:39:48.877Z,76.92
2022-12-09T11:45:50.888Z,76.39
2022-12-09T11:52:06.444Z,74.17
2022-12-09T11:58:15.919Z,76.14
2022-12-09T12:04:35.454Z,73.87
2022-12-09T12:10:57.368Z,74.04
2022-12-09T12:17:18.347Z,74.15
2022-12-09T12:23:33.690Z,76.76
2022-12-09T12:30:15.746Z,76.72
2022-12-09T12:36:52.625Z,77.22
2022-12-09T12:50:23.658Z,78.08
2022-12-09T12:56:44.423Z,77.80
2022-12-09T13:03:17.218Z,78.05
2022-12-09T13:09:40.625Z,78.04
2022-12-09T13:15:49.391Z,78.50
2022-12-09T13:21:52.474Z,78.96
2022-12-09T13:28:23.706Z,78.93
2022-12-09T13:34:39.375Z,79.64
2022-12-09T13:40:41.368Z,78.77
2022-12-09T13:46:43.332Z,80.56
2022-12-09T13:52:52.245Z,80.83
2022-12-09T13:59:22.645Z,79.45
2022-12-09T14:05:29.330Z,80.59
2022-12-09T14:11:37.423Z,80.93
2022-12-09T14:17:39.190Z,82.04
2022-12-09T14:24:08.010Z,82.29
2022-12-09T14:30:34.075Z,82.53
2022-12-09T14:36:36.123Z,83.10
2022-12-09T14:43:25.038Z,82.82
2022-12-09T14:49:48.887Z,83.16
2022-12-09T14:55:51.849Z,84.11
2022-12-09T15:02:18.342Z,84.16
2022-12-09T15:08:41.505Z,84.04
2022-12-09T15:14:47.230Z,84.93
2022-12-09T15:20:56.483Z,85.52
2022-12-09T15:27:03.601Z,85.74
2022-12-09T15:33:19.736Z,86.27
2022-12-09T15:39:36.817Z,85.72
2022-12-09T15:45:43.243Z,86.48
2022-12-09T15:51:46.873Z,87.43
2022-12-09T15:57:52.914Z,87.48
2022-12-09T16:03:57.640Z,87.76
2022-12-09T16:10:17.515Z,88.18
2022-12-09T16:16:50.556Z,87.69
2022-12-09T16:22:59.088Z,88.43
2022-12-09T16:29:05.942Z,88.22
2022-12-09T16:35:10.758Z,88.58
2022-12-09T16:41:12.795Z,88.47
2022-12-09T16:47:26.576Z,88.74
2022-12-09T16:53:41.006Z,89.09
2022-12-09T16:59:43.744Z,88.89
2022-12-09T17:05:47.887Z,89.13
2022-12-09T17:11:50.107Z,89.18
2022-12-09T17:17:52.013Z,89.17
2022-12-09T17:23:53.989Z,88.67
2022-12-09T17:29:58.867Z,89.02
2022-12-09T17:36:00.743Z,88.86
2022-12-09T17:42:03.497Z,89.30
2022-12-09T17:48:08.647Z,89.06
2022-12-09T17:54:10.638Z,89.51
2022-12-09T18:00:21.752Z,90.05
2022-12-09T18:06:28.445Z,90.07
2022-12-09T18:12:36.404Z,89.81
2022-12-09T18:18:42.597Z,89.85
2022-12-09T18:24:44.472Z,90.44
2022-12-09T18:30:46.439Z,90.58
2022-12-09T18:36:48.466Z,91.13
2022-12-09T18:42:51.737Z,91.82
2022-12-09T18:49:03.077Z,91.00
2022-12-09T18:55:08.482Z,91.91
2022-12-09T19:01:22.204Z,91.03
2022-12-09T19:07:27.773Z,91.58
2022-12-09T19:13:33.955Z,91.41
2022-12-09T19:19:36.027Z,91.34
2022-12-09T19:25:41.607Z,91.88
2022-12-09T19:31:50.326Z,92.00
2022-12-09T19:37:56.640Z,91.77
2022-12-09T19:44:04.000Z,91.66
2022-12-09T19:50:10.109Z,91.09
2022-12-09T19:56:15.862Z,91.58
2022-12-09T20:02:17.966Z,91.61
2022-12-09T20:08:20.494Z,92.36
2022-12-09T20:14:22.525Z,92.38
2022-12-09T20:20:26.975Z,92.01
2022-12-09T20:26:33.977Z,92.40
2022-12-09T20:32:35.860Z,93.04
2022-12-09T20:38:38.601Z,92.69
2022-12-09T20:44:40.474Z,92.91
2022-12-09T20:50:42.382Z,92.82
2022-12-09T20:56:46.207Z,92.83
2022-12-09T21:02:48.084Z,92.88
2022-12-09T21:08:51.203Z,92.50
2022-12-09T21:14:56.440Z,92.54
2022-12-09T21:20:58.347Z,93.39
2022-12-09T21:27:01.241Z,93.95
2022-12-09T21:33:03.132Z,93.93
2022-12-09T21:39:06.797Z,93.66
2022-12-09T21:51:26.611Z,93.74
2022-12-09T21:57:28.500Z,93.69
2022-12-09T22:03:30.371Z,93.23
2022-12-09T22:09:32.388Z,93.45
2022-12-09T22:15:35.175Z,93.77
2022-12-09T22:21:37.259Z,93.42
2022-12-09T22:27:43.185Z,94.00
2022-12-09T22:33:45.377Z,94.23
2022-12-09T22:39:47.384Z,93.87
2022-12-09T22:45:49.339Z,94.52
2022-12-09T22:51:54.143Z,94.81
2022-12-09T22:57:59.630Z,95.11
2022-12-09T23:04:02.328Z,95.13
2022-12-09T23:10:04.857Z,95.06
2022-12-09T23:16:09.159Z,95.13
2022-12-09T23:22:12.340Z,95.56
2022-12-09T23:28:14.205Z,95.82
2022-12-09T23:34:16.564Z,95.66
2022-12-09T23:40:21.531Z,96.21
2022-12-09T23:46:26.306Z,95.94
2022-12-09T23:52:28.242Z,95.89
2022-12-09T23:58:30.103Z,96.20
